Time;durP1;ratioP1;P1;durP2;ratioP2;P2;SDS_P1;SDS_P2;PMS_P1;PMS_P2;Temp;Humidity;BMP_temperature;BMP_pressure;BME280_temperature;BME280_humidity;BME280_pressure;Samples;Min_cycle;Max_cycle;Signal;HPM_P1;HPM_P2
2023/10/03 00:01:13;;;;;;;9.35;5.25;;;;;;;;;;4985740;28;20037;-55
2023/10/03 00:03:38;;;;;;;11.02;5.75;;;;;;;;;;4977634;28;20122;-56
2023/10/03 00:06:05;;;;;;;9.82;5.28;;;;;;;;;;4986304;28;20495;-56
2023/10/03 00:08:30;;;;;;;8.95;5.20;;;;;;;;;;4986211;28;20042;-57
2023/10/03 00:10:56;;;;;;;9.73;5.45;;;;;;;;;;4984640;28;20026;-57
2023/10/03 00:13:21;;;;;;;9.57;5.70;;;;;;;;;;4981030;28;20031;-55
2023/10/03 00:15:48;;;;;;;10.05;5.80;;;;;;;;;;4973349;28;20042;-55
2023/10/03 00:18:13;;;;;;;9.65;5.68;;;;;;;;;;4984925;28;20129;-56
2023/10/03 00:20:39;;;;;;;9.90;5.50;;;;;;;;;;4986221;28;20110;-55
2023/10/03 00:23:07;;;;;;;9.70;5.57;;;;;;;;;;4986044;28;20514;-55
2023/10/03 00:25:34;;;;;;;11.10;5.90;;;;;;;;;;4981715;28;20037;-56
2023/10/03 00:27:59;;;;;;;9.00;5.85;;;;;;;;;;4973574;28;20060;-55
2023/10/03 00:30:25;;;;;;;8.90;5.20;;;;;;;;;;5000912;28;20511;-56
2023/10/03 00:32:53;;;;;;;9.57;5.80;;;;;;;;;;4985901;28;20074;-57
2023/10/03 00:35:22;;;;;;;11.48;5.47;;;;;;;;;;4981267;28;20035;-55
2023/10/03 00:37:50;;;;;;;12.88;6.13;;;;;;;;;;4987158;28;20054;-56
2023/10/03 00:40:35;;;;;;;8.25;5.10;;;;;;;;;;4989800;28;20048;-56
2023/10/03 00:43:01;;;;;;;7.55;4.93;;;;;;;;;;4990642;28;20031;-55
2023/10/03 00:45:27;;;;;;;8.30;5.13;;;;;;;;;;4981387;28;20043;-56
2023/10/03 00:47:55;;;;;;;10.88;5.35;;;;;;;;;;4976970;28;20811;-56
2023/10/03 00:50:25;;;;;;;9.93;5.30;;;;;;;;;;4989822;28;21885;-56
2023/10/03 00:52:55;;;;;;;9.52;5.43;;;;;;;;;;4965420;28;20043;-56
2023/10/03 00:55:26;;;;;;;8.77;5.32;;;;;;;;;;4990538;28;20153;-57
2023/10/03 00:58:01;;;;;;;9.40;5.07;;;;;;;;;;4979330;28;20047;-56
2023/10/03 01:00:27;;;;;;;9.05;5.50;;;;;;;;;;4979391;28;20037;-55
2023/10/03 01:02:52;;;;;;;8.98;5.25;;;;;;;;;;4985682;28;20510;-56
2023/10/03 01:05:18;;;;;;;9.65;5.28;;;;;;;;;;4985614;28;20061;-56
2023/10/03 01:07:44;;;;;;;10.07;5.35;;;;;;;;;;4983324;28;20542;-56
2023/10/03 01:10:12;;;;;;;10.18;4.97;;;;;;;;;;4982033;28;20509;-55
2023/10/03 01:12:37;;;;;;;10.75;5.45;;;;;;;;;;4981428;28;20043;-56
2023/10/03 01:15:07;;;;;;;9.90;5.80;;;;;;;;;;4979490;28;20515;-55
2023/10/03 01:17:32;;;;;;;7.95;4.95;;;;;;;;;;4989075;28;20721;-55
2023/10/03 01:19:59;;;;;;;9.60;4.88;;;;;;;;;;4988603;28;20121;-56
2023/10/03 01:22:26;;;;;;;8.45;5.63;;;;;;;;;;4988039;28;20137;-55
2023/10/03 01:24:51;;;;;;;11.77;5.15;;;;;;;;;;4989973;28;20034;-56
2023/10/03 01:27:17;;;;;;;8.80;5.03;;;;;;;;;;4988278;28;20368;-56
2023/10/03 01:29:42;;;;;;;9.55;5.07;;;;;;;;;;4994339;28;20086;-56
2023/10/03 01:32:07;;;;;;;9.63;5.38;;;;;;;;;;4995282;28;20038;-55
2023/10/03 01:34:33;;;;;;;8.65;5.03;;;;;;;;;;4989749;28;20031;-55
2023/10/03 01:36:58;;;;;;;9.05;5.28;;;;;;;;;;4988802;28;20552;-55
2023/10/03 01:39:24;;;;;;;10.15;5.30;;;;;;;;;;4989092;28;20041;-56
2023/10/03 01:41:49;;;;;;;9.45;4.85;;;;;;;;;;5003519;28;20043;-56
2023/10/03 01:44:16;;;;;;;7.65;5.13;;;;;;;;;;4985287;28;20081;-55
2023/10/03 01:46:41;;;;;;;8.63;5.25;;;;;;;;;;4988608;28;20061;-55
2023/10/03 01:49:07;;;;;;;9.73;5.55;;;;;;;;;;4988165;28;20031;-56
2023/10/03 01:51:32;;;;;;;8.60;5.55;;;;;;;;;;4988674;28;20046;-56
2023/10/03 01:53:58;;;;;;;9.80;5.45;;;;;;;;;;4988417;28;20030;-56
2023/10/03 01:56:24;;;;;;;9.43;5.20;;;;;;;;;;4968822;28;20035;-57
2023/10/03 01:58:50;;;;;;;7.97;4.90;;;;;;;;;;4988799;28;20030;-55
2023/10/03 02:01:15;;;;;;;8.73;5.03;;;;;;;;;;4986970;28;20027;-56
2023/10/03 02:03:41;;;;;;;7.78;5.22;;;;;;;;;;4987104;28;20487;-55
2023/10/03 02:06:07;;;;;;;8.75;5.18;;;;;;;;;;4987416;28;20021;-55
2023/10/03 02:08:33;;;;;;;10.55;5.40;;;;;;;;;;4985463;28;20018;-56
2023/10/03 02:10:59;;;;;;;9.60;5.47;;;;;;;;;;5002319;28;20450;-56
2023/10/03 02:13:24;;;;;;;8.73;5.30;;;;;;;;;;4987092;28;20030;-56
2023/10/03 02:15:51;;;;;;;9.73;4.93;;;;;;;;;;4987997;28;20030;-56
2023/10/03 02:18:17;;;;;;;8.18;5.22;;;;;;;;;;4986624;28;20061;-56
2023/10/03 02:20:52;;;;;;;8.50;5.03;;;;;;;;;;4987892;28;20120;-55
2023/10/03 02:23:22;;;;;;;10.95;5.60;;;;;;;;;;4988736;28;20039;-55
2023/10/03 02:25:48;;;;;;;8.35;4.90;;;;;;;;;;4986086;28;20148;-56
2023/10/03 02:28:14;;;;;;;10.80;5.70;;;;;;;;;;4988208;28;20034;-56
2023/10/03 02:30:40;;;;;;;8.73;5.50;;;;;;;;;;4982953;28;20034;-57
2023/10/03 02:33:15;;;;;;;10.65;5.32;;;;;;;;;;4972863;28;20041;-57
2023/10/03 02:35:42;;;;;;;8.55;5.03;;;;;;;;;;4988285;28;20184;-56
2023/10/03 02:38:10;;;;;;;9.25;5.22;;;;;;;;;;4986441;28;20064;-56
2023/10/03 02:40:35;;;;;;;9.40;5.60;;;;;;;;;;4985790;28;20034;-55
2023/10/03 02:43:00;;;;;;;8.02;5.32;;;;;;;;;;4987485;28;20035;-58
2023/10/03 02:45:26;;;;;;;11.10;5.32;;;;;;;;;;4988026;28;20495;-57
2023/10/03 02:47:55;;;;;;;8.82;5.18;;;;;;;;;;4987174;28;20145;-55
2023/10/03 02:50:21;;;;;;;8.73;5.20;;;;;;;;;;4986918;28;20134;-56
2023/10/03 02:52:46;;;;;;;9.55;5.70;;;;;;;;;;4987923;28;20125;-56
2023/10/03 02:55:16;;;;;;;8.18;5.10;;;;;;;;;;4988235;28;20388;-56
2023/10/03 02:57:42;;;;;;;8.93;5.30;;;;;;;;;;4987346;28;20054;-55
2023/10/03 03:00:14;;;;;;;8.20;5.00;;;;;;;;;;4987280;28;20080;-56
2023/10/03 03:02:42;;;;;;;10.20;5.85;;;;;;;;;;4985983;28;20038;-55
2023/10/03 03:05:09;;;;;;;9.23;5.20;;;;;;;;;;4970483;28;20043;-56
2023/10/03 03:07:35;;;;;;;10.82;5.40;;;;;;;;;;4966829;28;20074;-55
2023/10/03 03:10:00;;;;;;;11.45;5.35;;;;;;;;;;4973194;28;20496;-56
2023/10/03 03:12:25;;;;;;;10.93;5.57;;;;;;;;;;4985535;28;20485;-55
2023/10/03 03:14:52;;;;;;;9.05;5.30;;;;;;;;;;4987006;28;20121;-57
2023/10/03 03:17:20;;;;;;;9.95;5.50;;;;;;;;;;4981137;28;20051;-55
2023/10/03 03:19:46;;;;;;;8.98;5.10;;;;;;;;;;4975352;28;20038;-55
2023/10/03 03:22:15;;;;;;;10.88;5.13;;;;;;;;;;4986508;28;20254;-55
2023/10/03 03:24:40;;;;;;;8.32;5.05;;;;;;;;;;4975084;28;20084;-56
2023/10/03 03:27:12;;;;;;;8.85;4.88;;;;;;;;;;4986716;28;20466;-57
2023/10/03 03:29:38;;;;;;;8.35;5.25;;;;;;;;;;4965024;28;20042;-56
2023/10/03 03:32:04;;;;;;;8.77;5.57;;;;;;;;;;4977368;28;20125;-56
2023/10/03 03:34:30;;;;;;;7.72;5.40;;;;;;;;;;4985242;28;20065;-55
2023/10/03 03:36:56;;;;;;;8.43;5.45;;;;;;;;;;4985007;28;20046;-55
2023/10/03 03:39:21;;;;;;;10.70;5.43;;;;;;;;;;4985756;28;20562;-55
2023/10/03 03:41:48;;;;;;;10.50;5.35;;;;;;;;;;4986928;28;20030;-55
2023/10/03 03:44:14;;;;;;;8.80;5.32;;;;;;;;;;4981089;28;20047;-55
2023/10/03 03:46:43;;;;;;;8.73;4.97;;;;;;;;;;4985784;28;20030;-56
2023/10/03 03:49:08;;;;;;;9.55;5.57;;;;;;;;;;4984095;28;20105;-55
2023/10/03 03:51:34;;;;;;;8.40;5.53;;;;;;;;;;4975935;28;20046;-56
2023/10/03 03:54:00;;;;;;;8.60;5.65;;;;;;;;;;4985096;28;20425;-55
2023/10/03 03:56:25;;;;;;;9.05;5.07;;;;;;;;;;4986302;28;20054;-55
2023/10/03 03:58:51;;;;;;;10.93;5.18;;;;;;;;;;4984743;28;20467;-55
2023/10/03 04:01:19;;;;;;;10.48;5.40;;;;;;;;;;4975895;28;20068;-55
2023/10/03 04:03:53;;;;;;;10.63;5.35;;;;;;;;;;4971250;28;20104;-57
2023/10/03 04:06:19;;;;;;;13.52;5.13;;;;;;;;;;4972279;28;20035;-58
2023/10/03 04:08:45;;;;;;;9.95;5.35;;;;;;;;;;4972547;28;20521;-58
2023/10/03 04:11:11;;;;;;;8.75;4.82;;;;;;;;;;4977676;28;20030;-59
2023/10/03 04:13:49;;;;;;;8.88;4.90;;;;;;;;;;4970692;28;20133;-58
2023/10/03 04:16:14;;;;;;;8.90;4.88;;;;;;;;;;4972189;28;20088;-58
2023/10/03 04:18:40;;;;;;;7.63;4.93;;;;;;;;;;4972012;28;20098;-59
2023/10/03 04:21:05;;;;;;;9.18;4.97;;;;;;;;;;4971650;28;20475;-61
2023/10/03 04:23:30;;;;;;;8.98;4.72;;;;;;;;;;4974074;28;20042;-60
2023/10/03 04:25:56;;;;;;;7.85;4.75;;;;;;;;;;4971801;28;20166;-61
2023/10/03 04:28:22;;;;;;;8.63;5.07;;;;;;;;;;4984731;28;20050;-60
2023/10/03 04:30:49;;;;;;;8.00;4.82;;;;;;;;;;4984382;28;20393;-58
2023/10/03 04:33:20;;;;;;;10.43;4.90;;;;;;;;;;4971030;28;20424;-59
2023/10/03 04:35:46;;;;;;;8.68;4.97;;;;;;;;;;4951619;28;20153;-62
2023/10/03 04:38:14;;;;;;;8.05;4.60;;;;;;;;;;4969930;28;20488;-60
2023/10/03 04:40:40;;;;;;;10.13;4.93;;;;;;;;;;4971697;28;20137;-58
2023/10/03 04:43:11;;;;;;;12.25;4.68;;;;;;;;;;4971876;28;20511;-58
2023/10/03 04:45:40;;;;;;;9.63;5.35;;;;;;;;;;4971824;28;20050;-58
2023/10/03 04:48:05;;;;;;;7.65;4.53;;;;;;;;;;4954371;28;20041;-60
2023/10/03 04:50:31;;;;;;;8.93;5.07;;;;;;;;;;4959257;28;20555;-57
2023/10/03 04:52:56;;;;;;;9.73;5.05;;;;;;;;;;4969879;28;20112;-59
2023/10/03 04:55:21;;;;;;;8.82;5.22;;;;;;;;;;4953497;28;20018;-59
2023/10/03 04:57:48;;;;;;;8.68;4.82;;;;;;;;;;4966842;28;20057;-59
2023/10/03 05:00:15;;;;;;;8.13;4.85;;;;;;;;;;4971178;28;20054;-60
2023/10/03 05:02:47;;;;;;;11.13;4.90;;;;;;;;;;4969736;28;20498;-59
2023/10/03 05:05:32;;;;;;;8.57;4.78;;;;;;;;;;4954364;28;20048;-58
2023/10/03 05:07:58;;;;;;;8.02;5.10;;;;;;;;;;4972040;28;20245;-62
2023/10/03 05:10:24;;;;;;;8.57;5.10;;;;;;;;;;4972171;28;20081;-60
2023/10/03 05:12:51;;;;;;;9.85;5.32;;;;;;;;;;4971999;28;20423;-59
2023/10/03 05:15:16;;;;;;;9.55;4.78;;;;;;;;;;4967383;28;20185;-58
2023/10/03 05:17:43;;;;;;;9.00;5.07;;;;;;;;;;4951785;28;20063;-58
2023/10/03 05:20:09;;;;;;;11.00;5.85;;;;;;;;;;4958644;28;20371;-53
2023/10/03 05:22:34;;;;;;;9.40;5.78;;;;;;;;;;4969750;28;20601;-58
2023/10/03 05:25:00;;;;;;;11.18;5.78;;;;;;;;;;4972325;28;20043;-58
2023/10/03 05:27:27;;;;;;;10.35;5.53;;;;;;;;;;4984067;28;20492;-58
2023/10/03 05:29:52;;;;;;;10.90;5.93;;;;;;;;;;4971809;28;20100;-61
2023/10/03 05:32:18;;;;;;;11.30;6.05;;;;;;;;;;4969492;28;20046;-60
2023/10/03 05:34:43;;;;;;;11.15;5.88;;;;;;;;;;4968225;28;20122;-61
2023/10/03 05:37:08;;;;;;;10.43;5.87;;;;;;;;;;4972228;28;20046;-57
2023/10/03 05:39:33;;;;;;;12.35;5.68;;;;;;;;;;4962745;28;20300;-57
2023/10/03 05:42:00;;;;;;;11.20;5.18;;;;;;;;;;4971939;28;20042;-57
2023/10/03 05:44:25;;;;;;;9.63;5.15;;;;;;;;;;4971908;28;20039;-58
2023/10/03 05:46:55;;;;;;;10.32;5.45;;;;;;;;;;4970553;28;20046;-57
2023/10/03 05:49:21;;;;;;;9.77;5.50;;;;;;;;;;4957703;28;20023;-57
2023/10/03 05:51:46;;;;;;;19.48;5.20;;;;;;;;;;4963983;28;20050;-61
2023/10/03 05:54:12;;;;;;;9.32;4.82;;;;;;;;;;4971603;28;20486;-57
2023/10/03 05:56:37;;;;;;;10.77;5.30;;;;;;;;;;4970802;28;20494;-59
2023/10/03 05:59:02;;;;;;;10.55;5.03;;;;;;;;;;4971235;28;20577;-57
2023/10/03 06:01:28;;;;;;;7.22;4.63;;;;;;;;;;4972439;28;20049;-57
2023/10/03 06:03:56;;;;;;;9.02;5.25;;;;;;;;;;4971640;28;20070;-58
2023/10/03 06:06:22;;;;;;;8.55;4.80;;;;;;;;;;4977075;28;20050;-57
2023/10/03 06:08:49;;;;;;;9.30;4.40;;;;;;;;;;4964225;28;20137;-59
2023/10/03 06:11:15;;;;;;;9.55;5.32;;;;;;;;;;4974490;28;20545;-57
2023/10/03 06:13:44;;;;;;;8.02;4.57;;;;;;;;;;4988899;28;20042;-58
2023/10/03 06:16:12;;;;;;;8.38;4.45;;;;;;;;;;4988247;28;20047;-57
2023/10/03 06:18:39;;;;;;;8.40;4.90;;;;;;;;;;4972805;28;20140;-58
2023/10/03 06:21:05;;;;;;;9.05;4.60;;;;;;;;;;4974459;28;20347;-58
2023/10/03 06:23:33;;;;;;;11.60;4.55;;;;;;;;;;4972420;28;20043;-58
2023/10/03 06:25:58;;;;;;;9.18;4.65;;;;;;;;;;4974289;28;20157;-57
2023/10/03 06:28:23;;;;;;;8.15;4.60;;;;;;;;;;4971874;28;20273;-57
2023/10/03 06:30:50;;;;;;;9.23;4.57;;;;;;;;;;4975743;28;20038;-57
2023/10/03 06:33:15;;;;;;;9.75;4.68;;;;;;;;;;4973064;28;20492;-57
2023/10/03 06:35:40;;;;;;;7.70;4.55;;;;;;;;;;4972878;28;20045;-57
2023/10/03 06:38:06;;;;;;;10.07;5.30;;;;;;;;;;4971846;28;20344;-59
2023/10/03 06:40:31;;;;;;;11.63;4.45;;;;;;;;;;4973112;28;20801;-58
2023/10/03 06:42:56;;;;;;;6.28;4.45;;;;;;;;;;4973379;28;20035;-56
2023/10/03 06:45:22;;;;;;;7.00;4.32;;;;;;;;;;4973149;28;20038;-56
2023/10/03 06:47:47;;;;;;;10.63;4.75;;;;;;;;;;4971186;28;20038;-57
2023/10/03 06:50:16;;;;;;;10.17;5.00;;;;;;;;;;4973484;28;20061;-57
2023/10/03 06:52:41;;;;;;;8.65;4.88;;;;;;;;;;4969296;28;20356;-58
2023/10/03 06:55:10;;;;;;;8.57;4.45;;;;;;;;;;4965602;28;20058;-57
2023/10/03 06:57:36;;;;;;;8.68;4.53;;;;;;;;;;4977520;28;20372;-57
2023/10/03 07:00:02;;;;;;;9.50;4.63;;;;;;;;;;4968733;28;20125;-58
2023/10/03 07:02:28;;;;;;;8.02;4.53;;;;;;;;;;4971834;28;20042;-58
2023/10/03 07:04:53;;;;;;;9.40;4.50;;;;;;;;;;4973056;28;20100;-58
2023/10/03 07:07:18;;;;;;;9.68;4.40;;;;;;;;;;4970722;28;20507;-59
2023/10/03 07:09:43;;;;;;;8.90;4.65;;;;;;;;;;4972466;28;20082;-57
2023/10/03 07:12:09;;;;;;;11.27;6.00;;;;;;;;;;4972783;28;20062;-56
2023/10/03 07:14:37;;;;;;;14.88;6.45;;;;;;;;;;4970667;28;20302;-58
2023/10/03 07:17:03;;;;;;;14.82;7.00;;;;;;;;;;4968558;28;20077;-57
2023/10/03 07:19:30;;;;;;;15.20;7.68;;;;;;;;;;4973360;28;20038;-57
2023/10/03 07:21:55;;;;;;;12.48;6.95;;;;;;;;;;4973117;28;20495;-56
2023/10/03 07:24:21;;;;;;;16.08;7.88;;;;;;;;;;4971130;28;20034;-58
2023/10/03 07:26:46;;;;;;;13.13;7.65;;;;;;;;;;4972220;28;20041;-57
2023/10/03 07:29:11;;;;;;;16.10;7.50;;;;;;;;;;4973315;28;20068;-57
2023/10/03 07:31:37;;;;;;;14.23;7.63;;;;;;;;;;4973599;28;20518;-57
2023/10/03 07:34:02;;;;;;;13.07;7.63;;;;;;;;;;4971380;28;20455;-56
2023/10/03 07:36:28;;;;;;;17.30;8.95;;;;;;;;;;4971542;28;20054;-55
2023/10/03 07:38:53;;;;;;;15.57;7.93;;;;;;;;;;4972015;28;20069;-56
2023/10/03 07:41:19;;;;;;;15.77;8.53;;;;;;;;;;4972405;28;20034;-56
2023/10/03 07:43:48;;;;;;;18.48;8.18;;;;;;;;;;4966820;28;20734;-56
2023/10/03 07:46:20;;;;;;;15.75;8.20;;;;;;;;;;4967701;28;20034;-55
2023/10/03 07:48:46;;;;;;;14.57;8.30;;;;;;;;;;4971552;28;20118;-56
2023/10/03 07:51:18;;;;;;;14.77;7.97;;;;;;;;;;4970698;28;20038;-56
2023/10/03 07:53:43;;;;;;;15.00;7.45;;;;;;;;;;4972174;28;20043;-57
2023/10/03 07:56:15;;;;;;;14.05;7.63;;;;;;;;;;4972325;28;20035;-57
2023/10/03 07:58:40;;;;;;;19.80;7.70;;;;;;;;;;4969945;28;20133;-56
2023/10/03 08:01:05;;;;;;;14.30;7.83;;;;;;;;;;4970705;28;20049;-56
2023/10/03 08:03:31;;;;;;;18.20;8.57;;;;;;;;;;4970385;28;20911;-56
2023/10/03 08:05:58;;;;;;;12.30;7.30;;;;;;;;;;4971324;28;20038;-56
2023/10/03 08:08:25;;;;;;;16.63;8.27;;;;;;;;;;4969298;28;20667;-56
2023/10/03 08:10:50;;;;;;;15.55;7.93;;;;;;;;;;4971269;28;20053;-57
2023/10/03 08:13:17;;;;;;;13.77;7.45;;;;;;;;;;4971296;28;20412;-57
2023/10/03 08:15:42;;;;;;;14.80;8.13;;;;;;;;;;4970831;28;20031;-56
2023/10/03 08:18:17;;;;;;;13.95;7.65;;;;;;;;;;4970981;28;20077;-57
2023/10/03 08:20:42;;;;;;;13.82;7.03;;;;;;;;;;4975169;28;20447;-57
2023/10/03 08:23:09;;;;;;;12.55;7.07;;;;;;;;;;4983371;28;20041;-56
2023/10/03 08:25:35;;;;;;;17.17;7.50;;;;;;;;;;4977230;28;20029;-56
2023/10/03 08:28:00;;;;;;;14.88;7.20;;;;;;;;;;4980592;28;20019;-57
2023/10/03 08:30:28;;;;;;;12.15;7.20;;;;;;;;;;4982467;28;20122;-56
2023/10/03 08:32:57;;;;;;;12.15;6.63;;;;;;;;;;4983592;28;20085;-56
2023/10/03 08:35:34;;;;;;;14.70;6.78;;;;;;;;;;4983600;28;20039;-56
2023/10/03 08:38:00;;;;;;;11.88;7.03;;;;;;;;;;4982578;28;20050;-56
2023/10/03 08:40:25;;;;;;;13.85;6.78;;;;;;;;;;4984092;28;20109;-57
2023/10/03 08:42:52;;;;;;;11.57;6.53;;;;;;;;;;4982271;28;20517;-56
2023/10/03 08:45:22;;;;;;;12.40;5.93;;;;;;;;;;4981922;28;20897;-55
2023/10/03 08:47:49;;;;;;;11.05;6.30;;;;;;;;;;4982816;28;20037;-56
2023/10/03 08:50:37;;;;;;;12.50;6.13;;;;;;;;;;4983336;28;20046;-56
2023/10/03 08:53:19;;;;;;;10.98;5.55;;;;;;;;;;4982223;28;20034;-56
2023/10/03 08:55:48;;;;;;;12.80;5.88;;;;;;;;;;4980761;28;20750;-57
2023/10/03 08:58:14;;;;;;;11.40;5.70;;;;;;;;;;4966887;28;20050;-58
2023/10/03 09:00:47;;;;;;;11.68;5.28;;;;;;;;;;4971604;28;20046;-56
2023/10/03 09:03:13;;;;;;;9.05;5.30;;;;;;;;;;4965545;28;20045;-58
2023/10/03 09:05:41;;;;;;;10.98;5.20;;;;;;;;;;4969729;28;20039;-56
2023/10/03 09:08:10;;;;;;;10.82;5.30;;;;;;;;;;4969880;28;20050;-56
2023/10/03 09:10:42;;;;;;;12.02;5.10;;;;;;;;;;4954978;28;20554;-56
2023/10/03 09:13:09;;;;;;;8.25;4.82;;;;;;;;;;4969486;28;20259;-56
2023/10/03 09:15:38;;;;;;;9.63;5.15;;;;;;;;;;4969754;28;20039;-57
2023/10/03 09:18:15;;;;;;;8.93;4.88;;;;;;;;;;4970112;28;20329;-57
2023/10/03 09:20:42;;;;;;;9.63;5.07;;;;;;;;;;4965222;28;20478;-57
2023/10/03 09:23:07;;;;;;;9.98;5.20;;;;;;;;;;4949385;28;20098;-56
2023/10/03 09:25:39;;;;;;;13.20;5.25;;;;;;;;;;4950544;28;20051;-57
2023/10/03 09:28:04;;;;;;;9.45;5.13;;;;;;;;;;4965385;28;20409;-57
2023/10/03 09:30:37;;;;;;;11.25;4.72;;;;;;;;;;4965624;28;20046;-56
2023/10/03 09:33:04;;;;;;;12.05;5.30;;;;;;;;;;4969193;28;20031;-56
2023/10/03 09:35:30;;;;;;;8.55;4.57;;;;;;;;;;4974662;28;20034;-57
2023/10/03 09:37:58;;;;;;;11.07;5.35;;;;;;;;;;4971042;28;20046;-57
2023/10/03 09:40:25;;;;;;;9.70;4.90;;;;;;;;;;4955728;28;20050;-57
2023/10/03 09:42:50;;;;;;;9.43;5.20;;;;;;;;;;4974657;28;20034;-57
2023/10/03 09:45:24;;;;;;;9.77;4.80;;;;;;;;;;4975105;28;20389;-57
2023/10/03 09:47:58;;;;;;;12.02;4.90;;;;;;;;;;4973457;28;20088;-55
2023/10/03 09:50:23;;;;;;;8.85;4.90;;;;;;;;;;4973364;28;20149;-57
2023/10/03 09:52:50;;;;;;;10.07;4.60;;;;;;;;;;4975413;28;20133;-57
2023/10/03 09:55:21;;;;;;;7.93;4.72;;;;;;;;;;4975085;28;20035;-58
2023/10/03 09:57:51;;;;;;;8.23;4.50;;;;;;;;;;4969491;28;20142;-56
2023/10/03 10:03:04;;;;;;;9.85;4.57;;;;;;;;;;4961188;28;20146;-58
2023/10/03 10:05:30;;;;;;;8.93;4.90;;;;;;;;;;4969476;28;20347;-57
2023/10/03 10:08:06;;;;;;;8.60;4.38;;;;;;;;;;4961760;28;20481;-58
2023/10/03 10:10:34;;;;;;;9.82;4.85;;;;;;;;;;4972794;28;20105;-57
2023/10/03 10:13:12;;;;;;;8.88;4.85;;;;;;;;;;4974595;28;20038;-57
2023/10/03 10:15:57;;;;;;;8.77;4.78;;;;;;;;;;4969379;28;20472;-57
2023/10/03 10:18:41;;;;;;;7.60;4.82;;;;;;;;;;4967012;28;20585;-57
2023/10/03 10:21:36;;;;;;;8.18;4.70;;;;;;;;;;4973623;28;20046;-56
2023/10/03 10:24:33;;;;;;;8.95;4.80;;;;;;;;;;4971408;28;20062;-57
2023/10/03 10:27:02;;;;;;;8.52;4.40;;;;;;;;;;4973404;28;20030;-58
2023/10/03 10:29:28;;;;;;;8.23;5.00;;;;;;;;;;4973344;28;20046;-57
2023/10/03 10:32:00;;;;;;;8.85;4.75;;;;;;;;;;4979805;28;20104;-57
2023/10/03 10:34:29;;;;;;;10.32;4.63;;;;;;;;;;4968845;28;20031;-58
2023/10/03 10:37:01;;;;;;;8.40;4.35;;;;;;;;;;4961160;28;20886;-57
2023/10/03 10:39:45;;;;;;;7.50;4.35;;;;;;;;;;4988752;28;20472;-58
2023/10/03 10:42:10;;;;;;;9.27;5.18;;;;;;;;;;4974468;28;20451;-57
2023/10/03 10:44:36;;;;;;;9.02;4.60;;;;;;;;;;4972844;28;20105;-57
2023/10/03 10:47:05;;;;;;;8.80;4.97;;;;;;;;;;4973603;28;20026;-57
2023/10/03 10:49:34;;;;;;;7.40;5.03;;;;;;;;;;4974870;28;20173;-57
2023/10/03 10:52:01;;;;;;;9.45;4.90;;;;;;;;;;4973043;28;20034;-57
2023/10/03 10:54:26;;;;;;;9.57;4.90;;;;;;;;;;4972516;28;20042;-58
2023/10/03 10:57:01;;;;;;;7.93;4.00;;;;;;;;;;4972890;28;20050;-58
2023/10/03 10:59:31;;;;;;;9.02;4.82;;;;;;;;;;4971680;28;20062;-58
2023/10/03 11:01:57;;;;;;;9.98;5.28;;;;;;;;;;4972171;28;20069;-58
2023/10/03 11:04:26;;;;;;;9.48;4.55;;;;;;;;;;4973187;28;20070;-57
2023/10/03 11:06:52;;;;;;;8.85;4.93;;;;;;;;;;4973993;28;20045;-58
2023/10/03 11:09:20;;;;;;;8.50;4.90;;;;;;;;;;4974590;28;20147;-57
2023/10/03 11:11:45;;;;;;;8.90;4.50;;;;;;;;;;4983111;28;20105;-56
2023/10/03 11:14:11;;;;;;;9.07;5.30;;;;;;;;;;4973208;28;20687;-56
2023/10/03 11:16:36;;;;;;;8.60;4.57;;;;;;;;;;4974689;28;20042;-56
2023/10/03 11:19:02;;;;;;;8.88;4.20;;;;;;;;;;4973036;28;20046;-57
2023/10/03 11:21:30;;;;;;;8.20;4.50;;;;;;;;;;4971026;28;20034;-56
2023/10/03 11:24:07;;;;;;;6.70;4.45;;;;;;;;;;4973363;28;20038;-55
2023/10/03 11:26:41;;;;;;;9.00;4.65;;;;;;;;;;4971308;28;20046;-56
2023/10/03 11:29:07;;;;;;;7.45;4.57;;;;;;;;;;4973188;28;20117;-58
2023/10/03 11:31:36;;;;;;;10.35;5.22;;;;;;;;;;4972514;28;20181;-56
2023/10/03 11:34:02;;;;;;;7.90;4.43;;;;;;;;;;4971916;28;20046;-57
2023/10/03 11:36:34;;;;;;;7.85;4.60;;;;;;;;;;4962272;28;20033;-56
2023/10/03 11:39:01;;;;;;;10.13;5.25;;;;;;;;;;4972499;28;21789;-56
2023/10/03 11:41:29;;;;;;;8.77;5.07;;;;;;;;;;4972056;28;20033;-56
2023/10/03 11:43:55;;;;;;;7.72;4.78;;;;;;;;;;4975667;28;20030;-56
2023/10/03 11:46:21;;;;;;;7.83;4.70;;;;;;;;;;4979020;28;20029;-56
2023/10/03 11:48:46;;;;;;;7.93;4.85;;;;;;;;;;4975533;28;20282;-57
2023/10/03 11:51:13;;;;;;;9.50;4.45;;;;;;;;;;4976056;28;20042;-56
2023/10/03 11:53:38;;;;;;;10.40;5.18;;;;;;;;;;4972927;28;20043;-58
2023/10/03 11:56:03;;;;;;;8.20;4.45;;;;;;;;;;4974107;28;20111;-58
2023/10/03 11:58:29;;;;;;;7.30;4.75;;;;;;;;;;4973220;28;20471;-56
2023/10/03 12:00:54;;;;;;;7.22;4.40;;;;;;;;;;4972534;28;20107;-56
2023/10/03 12:03:19;;;;;;;8.60;5.07;;;;;;;;;;4977719;28;20565;-56
2023/10/03 12:05:49;;;;;;;9.50;5.00;;;;;;;;;;4973209;28;20297;-58
2023/10/03 12:08:14;;;;;;;8.20;4.85;;;;;;;;;;4968805;28;20049;-58
2023/10/03 12:10:41;;;;;;;8.10;4.80;;;;;;;;;;4955785;28;20419;-56
2023/10/03 12:13:07;;;;;;;7.70;4.85;;;;;;;;;;4955099;28;20287;-58
2023/10/03 12:15:32;;;;;;;8.68;4.75;;;;;;;;;;4961318;28;20123;-57
2023/10/03 12:17:58;;;;;;;6.97;4.80;;;;;;;;;;4973233;28;20145;-55
2023/10/03 12:20:24;;;;;;;9.15;4.38;;;;;;;;;;4972683;28;20097;-55
2023/10/03 12:22:53;;;;;;;7.38;4.80;;;;;;;;;;4973381;28;20061;-57
2023/10/03 12:25:19;;;;;;;7.87;5.00;;;;;;;;;;4971118;28;20599;-57
2023/10/03 12:27:44;;;;;;;8.20;4.47;;;;;;;;;;4974840;28;20038;-57
2023/10/03 12:30:10;;;;;;;8.73;5.13;;;;;;;;;;4973460;28;20451;-56
2023/10/03 12:32:54;;;;;;;7.82;4.57;;;;;;;;;;4970956;28;20531;-56
2023/10/03 12:35:19;;;;;;;6.53;4.40;;;;;;;;;;4970659;28;20046;-58
2023/10/03 12:37:45;;;;;;;9.85;4.82;;;;;;;;;;4974313;28;20495;-57
2023/10/03 12:40:16;;;;;;;7.82;4.50;;;;;;;;;;4971788;28;20066;-56
2023/10/03 12:42:43;;;;;;;7.55;4.43;;;;;;;;;;4953722;28;20041;-56
2023/10/03 12:45:10;;;;;;;9.32;4.70;;;;;;;;;;4974464;28;20137;-56
2023/10/03 12:47:35;;;;;;;8.55;4.90;;;;;;;;;;4961962;28;20049;-57
2023/10/03 12:50:01;;;;;;;9.65;4.68;;;;;;;;;;4971777;28;20034;-57
2023/10/03 12:52:29;;;;;;;7.32;4.18;;;;;;;;;;4972375;28;20027;-56
2023/10/03 12:54:55;;;;;;;8.68;4.50;;;;;;;;;;4984725;28;20042;-56
2023/10/03 12:57:21;;;;;;;7.88;4.65;;;;;;;;;;4985475;28;20057;-57
2023/10/03 12:59:49;;;;;;;10.30;5.35;;;;;;;;;;4986464;28;20043;-56
2023/10/03 13:02:17;;;;;;;7.35;4.55;;;;;;;;;;4985088;28;20034;-56
2023/10/03 13:04:42;;;;;;;9.05;4.85;;;;;;;;;;4981475;28;20043;-57
2023/10/03 13:07:09;;;;;;;6.68;4.43;;;;;;;;;;4976572;28;20034;-56
2023/10/03 13:09:35;;;;;;;7.75;4.53;;;;;;;;;;4985653;28;20045;-57
2023/10/03 13:12:00;;;;;;;8.68;4.90;;;;;;;;;;4983794;28;20026;-57
2023/10/03 13:14:25;;;;;;;8.60;4.65;;;;;;;;;;4984222;28;20440;-58
2023/10/03 13:16:57;;;;;;;8.63;4.40;;;;;;;;;;4984867;28;20035;-57
2023/10/03 13:19:22;;;;;;;7.47;4.60;;;;;;;;;;4985370;28;20289;-57
2023/10/03 13:21:47;;;;;;;9.75;5.50;;;;;;;;;;4979210;28;20046;-57
2023/10/03 13:24:13;;;;;;;8.80;5.20;;;;;;;;;;4977623;28;20471;-57
2023/10/03 13:26:38;;;;;;;8.38;4.97;;;;;;;;;;4984325;28;20050;-58
2023/10/03 13:29:04;;;;;;;8.93;5.07;;;;;;;;;;4989238;28;20092;-58
2023/10/03 13:31:29;;;;;;;9.25;4.82;;;;;;;;;;4986077;28;20357;-58
2023/10/03 13:33:55;;;;;;;9.38;4.85;;;;;;;;;;4984576;28;20026;-58
2023/10/03 13:36:20;;;;;;;8.68;4.80;;;;;;;;;;4984455;28;20041;-57
2023/10/03 13:38:45;;;;;;;9.70;5.28;;;;;;;;;;4985292;28;20509;-57
2023/10/03 13:41:11;;;;;;;11.00;5.80;;;;;;;;;;4984781;28;20113;-58
2023/10/03 13:43:37;;;;;;;13.33;5.67;;;;;;;;;;4985310;28;20039;-58
2023/10/03 13:46:03;;;;;;;8.45;4.90;;;;;;;;;;4982981;28;20381;-58
2023/10/03 13:48:28;;;;;;;8.77;5.00;;;;;;;;;;4984564;28;20065;-57
2023/10/03 13:50:54;;;;;;;9.47;5.53;;;;;;;;;;4983946;28;20038;-58
2023/10/03 13:53:20;;;;;;;8.40;5.00;;;;;;;;;;4985741;28;20290;-57
2023/10/03 13:55:46;;;;;;;9.10;5.05;;;;;;;;;;4985705;28;20085;-58
2023/10/03 13:58:11;;;;;;;10.13;5.03;;;;;;;;;;4986366;28;20046;-57
2023/10/03 14:00:39;;;;;;;10.60;5.03;;;;;;;;;;4984797;28;20455;-57
2023/10/03 14:03:08;;;;;;;9.15;5.35;;;;;;;;;;4985678;28;20469;-57
2023/10/03 14:05:34;;;;;;;11.05;5.05;;;;;;;;;;4985629;28;20062;-57
2023/10/03 14:08:00;;;;;;;12.13;5.70;;;;;;;;;;4985716;28;20039;-58
2023/10/03 14:10:25;;;;;;;12.80;5.72;;;;;;;;;;4984568;28;20479;-58
2023/10/03 14:12:51;;;;;;;11.50;5.27;;;;;;;;;;4985248;28;20035;-57
2023/10/03 14:15:20;;;;;;;10.27;5.35;;;;;;;;;;4985470;28;20662;-58
2023/10/03 14:17:46;;;;;;;11.90;6.10;;;;;;;;;;4982338;28;20488;-57
2023/10/03 14:20:11;;;;;;;11.02;5.40;;;;;;;;;;4983699;28;20069;-57
2023/10/03 14:22:37;;;;;;;9.10;4.93;;;;;;;;;;4988706;28;20039;-58
2023/10/03 14:25:03;;;;;;;12.00;5.63;;;;;;;;;;4985937;28;20117;-58
2023/10/03 14:27:29;;;;;;;14.18;5.32;;;;;;;;;;4986579;28;20050;-58
2023/10/03 14:29:54;;;;;;;11.13;5.65;;;;;;;;;;4987790;28;20026;-58
2023/10/03 14:32:21;;;;;;;9.47;5.17;;;;;;;;;;4986751;28;20391;-56
2023/10/03 14:34:48;;;;;;;12.90;5.93;;;;;;;;;;4987554;28;20503;-58
2023/10/03 14:37:13;;;;;;;10.02;5.28;;;;;;;;;;4986102;28;20054;-56
2023/10/03 14:39:38;;;;;;;10.23;5.60;;;;;;;;;;4987960;28;20049;-57
2023/10/03 14:42:04;;;;;;;13.45;5.30;;;;;;;;;;4984003;28;20089;-57